Falls City, NE

9:36 AM CDT on July 23, 2016 (GMT -0500)
Brenner | | Change Station
Active Advisory: Excessive Heat Warning

Elev 984 ft 40.08 °N, 95.59 °W | Updated 43 minutes ago

Clear
Clear
82 °F
Feels Like 87 °F
N
12
Wind Variable Wind from SSW

Today
High -- | Low -- °F
--% Chance of Precip.
Yesterday
High -- | Low -- °F
Precip. -- in
Pressure 29.86 in
Visibility 10.0 miles
Clouds Clear
Heat Index 87 °F
Dew Point 73 °F
Humidity 74%
Rainfall 0.04 in
Snow Depth Not available.
6:13 AM 8:44 PM
Waning Gibbous, 85% visible
METAR KFNB 231353Z AUTO 20010KT 10SM CLR 28/23 A2989 RMK AO2 SLP111 T02780228
Pressure 29.86 in
Visibility 10.0 miles
Clouds Clear
Heat Index 87 °F
Dew Point 73 °F
Humidity 74%
Rainfall 0.04 in
Snow Depth Not available.
6:13 AM 8:44 PM
Waning Gibbous, 85% visible
METAR KFNB 231353Z AUTO 20010KT 10SM CLR 28/23 A2989 RMK AO2 SLP111 T02780228

10-Day Weather Forecast

Almanac

Astronomy

Jul. 23, 2016 Rise Set
Actual Time
Civil Twilight
Nautical Twilight
Astronomical Twilight
Moon
Length of Visible Light
Length of Day
Tomorrow will be .
, % of the Moon is Illuminated

Today's Extremes

State Highs State Lows

Community

WunderPhotos

Upload Photos

1,926,825 photos uploaded!

WunderBlog® & News

Nearby

Air Quality

  Air Quality AQ Index Pollutant
Not available.

Snow Depth

Station Depth Elevation

Earthquake Activity

City Distance Mag. Time & Date
Minimum magnitude displayed is 2.5.

Coastal Water Temperatures

Place Temperature

Stations

Nearby Weather Stations

Station Location Temp. Windchill Dew Point Humidity Wind Precip. Elev Updated Type
                   

Watches & Warnings

Excessive Heat Warning
Issued: 3:55 AM CDT Jul. 23, 2016 – National Weather Service

... Excessive heat warning remains in effect until 7 PM CDT this
evening...

* temperature... temperatures will climb into the lower and mid
90ss during the afternoon today. This coupled with moisture will
create heat index values of 100 to 108 degrees.

* Impacts... the longevity of the heat event will result in a
potentially dangerous situation for sensitive groups...
including children... the elderly... or those with medical
conditions. Leaving a child or pet in an enclosed vehicle can
be deadly... even for a short period of time. Heat deaths are
preventable. Check on people who live in buildings without air
conditioning.

Precautionary/preparedness actions...

An excessive heat warning means that a prolonged period of
dangerously hot temperatures will occur. The combination of hot
temperatures and high humidity will combine to create a dangerous
situation in which heat illnesses are likely. Drink plenty of
fluids... stay in an air-conditioned room... stay out of the
sun... and check up on relatives and neighbors.